Moran, Minnesota
Current Conditions -  °F | °C
As of 10:33 AM on Saturday 20 Dec 2014 (Local Time) from KSAZ Reporting Station
Haze Haze  
Wind Chill: 17°   Ceiling: 700
Heat Index: 28°   Visibility: 4mi
Dew Point: 27°   Wind: 14mph
Humidity: 93%   Direction: 190°S
Pressure: 30.06"   Gusts: 18mph
Location:  46.4416°N, 94.6389°W
Report Text: KSAZ 201633Z AUTO 19012G16KT 4SM BR OVC007 M02/M03 A3006 RMK AO2
Loading
Personal Weather Stations






























Interactive Weather Map New forecast layout! Learn more

10-Day Weather Forecast

Advertisements
Track Severe Weather on mobile